Time;durP1;ratioP1;P1;durP2;ratioP2;P2;SDS_P1;SDS_P2;PMS_P1;PMS_P2;Temp;Humidity;BMP_temperature;BMP_pressure;BME280_temperature;BME280_humidity;BME280_pressure;Samples;Min_cycle;Max_cycle;Signal;HPM_P1;HPM_P2
2022/03/05 00:00:25;;;;;;;;;105.20;92.40;;;;;;;;4998191;28;8750;-68
2022/03/05 00:02:52;;;;;;;;;110.80;98.20;;;;;;;;4998650;28;8729;-68
2022/03/05 00:05:19;;;;;;;;;115.00;98.80;;;;;;;;4998411;28;8729;-67
2022/03/05 00:07:46;;;;;;;;;109.80;94.40;;;;;;;;4997302;28;8781;-68
2022/03/05 00:10:13;;;;;;;;;102.80;87.60;;;;;;;;4997967;28;8774;-68
2022/03/05 00:12:39;;;;;;;;;103.00;93.60;;;;;;;;5014835;28;8782;-68
2022/03/05 00:15:06;;;;;;;;;107.40;89.80;;;;;;;;5017812;28;8775;-68
2022/03/05 00:17:33;;;;;;;;;114.60;101.80;;;;;;;;5017396;28;8771;-68
2022/03/05 00:20:00;;;;;;;;;115.00;106.20;;;;;;;;5017800;28;8840;-68
2022/03/05 00:22:26;;;;;;;;;107.80;97.60;;;;;;;;5018002;28;8763;-68
2022/03/05 00:24:53;;;;;;;;;117.20;107.20;;;;;;;;5033723;28;8751;-68
2022/03/05 00:27:20;;;;;;;;;139.80;124.00;;;;;;;;5017073;28;9464;-68
2022/03/05 00:29:46;;;;;;;;;136.80;119.00;;;;;;;;5032879;28;9372;-68
2022/03/05 00:32:13;;;;;;;;;146.80;126.40;;;;;;;;5017869;28;8774;-68
2022/03/05 00:34:40;;;;;;;;;143.00;121.60;;;;;;;;5016655;28;8777;-68
2022/03/05 00:37:08;;;;;;;;;137.20;122.00;;;;;;;;5033627;28;8865;-68
2022/03/05 00:39:34;;;;;;;;;134.80;117.40;;;;;;;;5015868;28;8837;-68
2022/03/05 00:42:01;;;;;;;;;104.80;96.00;;;;;;;;5020310;28;8801;-68
2022/03/05 00:44:28;;;;;;;;;132.60;114.60;;;;;;;;4996215;28;8789;-67
2022/03/05 00:46:55;;;;;;;;;127.40;114.00;;;;;;;;4997770;28;8754;-68
2022/03/05 00:49:25;;;;;;;;;128.60;114.80;;;;;;;;4997324;28;8919;-66
2022/03/05 00:51:55;;;;;;;;;126.40;104.40;;;;;;;;4996958;28;8749;-68
2022/03/05 00:54:21;;;;;;;;;114.80;100.20;;;;;;;;4996140;28;8773;-67
2022/03/05 00:56:48;;;;;;;;;113.00;99.40;;;;;;;;5006374;28;9680;-68
2022/03/05 00:59:15;;;;;;;;;100.40;90.40;;;;;;;;5017398;28;8778;-69
2022/03/05 01:01:41;;;;;;;;;113.40;101.60;;;;;;;;5032039;28;8750;-68
2022/03/05 01:04:08;;;;;;;;;109.00;93.60;;;;;;;;5017717;28;8785;-68
2022/03/05 01:06:35;;;;;;;;;112.00;99.40;;;;;;;;5016712;28;8811;-68
2022/03/05 01:09:02;;;;;;;;;109.60;94.40;;;;;;;;5017046;28;8763;-68
2022/03/05 01:11:29;;;;;;;;;101.40;92.20;;;;;;;;5016893;28;9616;-68
2022/03/05 01:13:55;;;;;;;;;105.80;96.60;;;;;;;;5017554;28;8763;-68
2022/03/05 01:16:22;;;;;;;;;85.20;79.60;;;;;;;;5032779;28;8760;-68
2022/03/05 01:18:49;;;;;;;;;107.20;93.40;;;;;;;;5017025;28;9419;-68
2022/03/05 01:21:16;;;;;;;;;106.00;90.80;;;;;;;;5031666;28;9356;-68
2022/03/05 01:23:42;;;;;;;;;107.00;94.00;;;;;;;;5016799;28;8865;-68
2022/03/05 01:26:09;;;;;;;;;111.20;97.60;;;;;;;;5017147;28;8775;-68
2022/03/05 01:28:36;;;;;;;;;108.40;96.60;;;;;;;;5017129;28;8763;-68
2022/03/05 01:31:03;;;;;;;;;106.20;92.60;;;;;;;;5017982;28;8866;-68
2022/03/05 01:33:29;;;;;;;;;113.80;99.00;;;;;;;;5017060;28;8844;-68
2022/03/05 01:35:56;;;;;;;;;106.20;93.20;;;;;;;;5017411;28;8746;-68
2022/03/05 01:38:23;;;;;;;;;102.00;92.80;;;;;;;;5016040;28;8739;-68
2022/03/05 01:40:51;;;;;;;;;103.60;94.60;;;;;;;;5017250;28;8809;-68
2022/03/05 01:43:18;;;;;;;;;101.60;91.60;;;;;;;;5017576;28;8766;-67
2022/03/05 01:45:44;;;;;;;;;100.20;91.00;;;;;;;;5017055;28;8894;-68
2022/03/05 01:48:11;;;;;;;;;98.40;87.00;;;;;;;;5031991;28;8747;-68
2022/03/05 01:50:38;;;;;;;;;93.20;86.20;;;;;;;;5015565;28;8771;-67
2022/03/05 01:53:04;;;;;;;;;97.80;85.80;;;;;;;;5017241;28;8908;-68
2022/03/05 01:55:31;;;;;;;;;92.20;83.80;;;;;;;;5016817;28;8760;-67
2022/03/05 01:57:58;;;;;;;;;89.60;80.80;;;;;;;;5017654;28;8771;-68
2022/03/05 02:00:26;;;;;;;;;82.60;74.00;;;;;;;;5016395;28;8806;-68
2022/03/05 02:02:53;;;;;;;;;87.00;81.00;;;;;;;;5016976;28;8909;-67
2022/03/05 02:05:19;;;;;;;;;83.40;72.00;;;;;;;;5016586;28;8848;-67
2022/03/05 02:07:46;;;;;;;;;82.20;70.60;;;;;;;;5016890;28;8852;-67
2022/03/05 02:10:13;;;;;;;;;81.40;73.20;;;;;;;;5018168;28;8778;-68
2022/03/05 02:12:40;;;;;;;;;86.00;75.80;;;;;;;;5016359;28;9541;-68
2022/03/05 02:15:07;;;;;;;;;87.20;77.80;;;;;;;;5032208;28;8775;-68
2022/03/05 02:17:34;;;;;;;;;81.00;73.80;;;;;;;;5015569;28;8763;-67
2022/03/05 02:20:01;;;;;;;;;86.20;75.60;;;;;;;;5031890;28;8855;-68
2022/03/05 02:22:27;;;;;;;;;81.80;72.60;;;;;;;;5016412;28;8766;-67
2022/03/05 02:24:59;;;;;;;;;74.00;65.80;;;;;;;;5018021;28;8743;-68
2022/03/05 02:27:26;;;;;;;;;78.40;74.00;;;;;;;;5014762;28;8897;-68
2022/03/05 02:29:53;;;;;;;;;86.40;78.20;;;;;;;;5015128;28;8790;-68
2022/03/05 02:32:20;;;;;;;;;80.20;70.00;;;;;;;;5016253;28;8751;-67
2022/03/05 02:34:47;;;;;;;;;84.60;74.60;;;;;;;;5019833;28;8771;-68
2022/03/05 02:37:15;;;;;;;;;78.20;71.20;;;;;;;;5020927;28;8758;-68
2022/03/05 02:39:42;;;;;;;;;83.20;74.00;;;;;;;;5020246;28;8742;-67
2022/03/05 02:42:09;;;;;;;;;80.60;69.40;;;;;;;;5022288;28;8797;-68
2022/03/05 02:44:36;;;;;;;;;79.60;70.60;;;;;;;;4999540;28;8853;-68
2022/03/05 02:47:03;;;;;;;;;79.80;70.40;;;;;;;;5000821;28;8750;-67
2022/03/05 02:49:30;;;;;;;;;85.80;72.40;;;;;;;;4998991;28;8871;-67
2022/03/05 02:51:58;;;;;;;;;85.20;74.00;;;;;;;;4999743;28;8765;-68
2022/03/05 02:54:24;;;;;;;;;81.80;69.80;;;;;;;;5000071;28;8745;-68
2022/03/05 02:56:51;;;;;;;;;81.20;68.40;;;;;;;;5010778;28;8802;-68
2022/03/05 02:59:18;;;;;;;;;80.40;69.80;;;;;;;;5020209;28;8802;-67
2022/03/05 03:01:46;;;;;;;;;83.80;73.00;;;;;;;;5020173;28;8953;-68
2022/03/05 03:04:13;;;;;;;;;75.00;62.40;;;;;;;;5020672;28;8783;-68
2022/03/05 03:06:42;;;;;;;;;86.00;77.80;;;;;;;;5019212;28;8791;-68
2022/03/05 03:09:09;;;;;;;;;87.00;79.20;;;;;;;;5019828;28;8897;-68
2022/03/05 03:11:36;;;;;;;;;79.00;70.40;;;;;;;;5019143;28;8901;-68
2022/03/05 03:14:02;;;;;;;;;85.40;78.40;;;;;;;;5019508;28;8785;-68
2022/03/05 03:16:29;;;;;;;;;82.40;73.00;;;;;;;;5019242;28;8770;-67
2022/03/05 03:18:56;;;;;;;;;79.40;73.40;;;;;;;;5018186;28;8743;-68
2022/03/05 03:21:23;;;;;;;;;82.00;71.00;;;;;;;;5017264;28;8763;-67
2022/03/05 03:23:50;;;;;;;;;80.60;71.40;;;;;;;;5011091;28;8750;-68
2022/03/05 03:26:16;;;;;;;;;79.40;72.60;;;;;;;;5026752;28;8802;-67
2022/03/05 03:28:43;;;;;;;;;79.40;70.60;;;;;;;;5023945;28;8751;-67
2022/03/05 03:31:13;;;;;;;;;81.80;73.40;;;;;;;;5018441;28;8783;-68
2022/03/05 03:33:39;;;;;;;;;80.60;70.60;;;;;;;;5018862;28;8759;-68
2022/03/05 03:36:06;;;;;;;;;85.80;73.60;;;;;;;;5018599;28;8762;-68
2022/03/05 03:38:33;;;;;;;;;81.80;73.40;;;;;;;;5018808;28;8755;-68
2022/03/05 03:40:59;;;;;;;;;83.40;76.20;;;;;;;;5019253;28;8849;-68
2022/03/05 03:43:26;;;;;;;;;81.80;69.80;;;;;;;;5018753;28;8751;-67
2022/03/05 03:45:53;;;;;;;;;76.20;68.60;;;;;;;;5018930;28;8826;-67
2022/03/05 03:48:19;;;;;;;;;77.20;65.80;;;;;;;;5018050;28;8810;-67
2022/03/05 03:50:46;;;;;;;;;80.20;68.80;;;;;;;;5017040;28;8759;-67
2022/03/05 03:53:13;;;;;;;;;74.80;58.60;;;;;;;;5018318;28;8787;-67
2022/03/05 03:55:40;;;;;;;;;79.00;68.00;;;;;;;;5018197;28;8833;-68
2022/03/05 03:58:06;;;;;;;;;74.60;67.60;;;;;;;;5018563;28;8785;-67
2022/03/05 04:00:33;;;;;;;;;78.80;66.40;;;;;;;;5017625;28;8860;-67
2022/03/05 04:03:00;;;;;;;;;77.60;66.40;;;;;;;;5018159;28;8770;-67
2022/03/05 04:05:27;;;;;;;;;73.40;66.40;;;;;;;;5018309;28;8786;-67
2022/03/05 04:10:38;;;;;;;;;74.20;67.80;;;;;;;;5031271;28;8771;-67
2022/03/05 04:13:05;;;;;;;;;76.60;69.20;;;;;;;;5018570;28;8763;-67
2022/03/05 04:15:32;;;;;;;;;77.60;66.80;;;;;;;;5017665;28;9457;-68
2022/03/05 04:17:59;;;;;;;;;78.00;68.40;;;;;;;;5018040;28;8874;-67
2022/03/05 04:20:25;;;;;;;;;77.80;65.00;;;;;;;;5017593;28;8779;-67
2022/03/05 04:22:52;;;;;;;;;75.40;60.00;;;;;;;;5017608;28;8789;-67
2022/03/05 04:25:19;;;;;;;;;78.40;68.60;;;;;;;;5018529;28;8813;-67
2022/03/05 04:27:45;;;;;;;;;72.20;61.20;;;;;;;;5033170;28;8881;-67
2022/03/05 04:30:12;;;;;;;;;77.60;68.60;;;;;;;;5017923;28;8770;-67
2022/03/05 04:32:39;;;;;;;;;71.80;60.00;;;;;;;;5032601;28;8798;-67
2022/03/05 04:35:06;;;;;;;;;76.00;62.20;;;;;;;;5032865;28;8778;-67
2022/03/05 04:37:33;;;;;;;;;79.00;68.80;;;;;;;;5017170;28;9154;-67
2022/03/05 04:39:59;;;;;;;;;80.00;68.00;;;;;;;;5018020;28;8766;-67
2022/03/05 04:42:26;;;;;;;;;73.40;59.80;;;;;;;;5017094;28;8751;-67
2022/03/05 04:44:53;;;;;;;;;79.20;67.00;;;;;;;;5017790;28;8783;-67
2022/03/05 04:47:20;;;;;;;;;75.60;63.60;;;;;;;;5032133;28;8898;-66
2022/03/05 04:49:47;;;;;;;;;75.20;64.20;;;;;;;;5032251;28;8905;-67
2022/03/05 04:52:13;;;;;;;;;71.60;57.60;;;;;;;;5018028;28;8766;-68
2022/03/05 04:54:40;;;;;;;;;75.20;65.40;;;;;;;;5017369;28;8739;-67
2022/03/05 04:57:07;;;;;;;;;72.40;57.40;;;;;;;;5017273;28;8771;-67
2022/03/05 04:59:33;;;;;;;;;76.80;68.00;;;;;;;;5015508;28;8779;-67
2022/03/05 05:02:00;;;;;;;;;80.60;69.00;;;;;;;;5032153;28;9412;-67
2022/03/05 05:04:27;;;;;;;;;74.40;64.00;;;;;;;;5017350;28;8777;-67
2022/03/05 05:06:56;;;;;;;;;78.00;69.40;;;;;;;;5016393;28;8775;-67
2022/03/05 05:09:23;;;;;;;;;74.00;63.20;;;;;;;;5016891;28;8774;-67
2022/03/05 05:11:50;;;;;;;;;74.20;64.20;;;;;;;;5017168;28;8766;-67
2022/03/05 05:14:17;;;;;;;;;74.00;64.20;;;;;;;;5017124;28;8763;-67
2022/03/05 05:16:43;;;;;;;;;76.40;67.40;;;;;;;;5017175;28;8818;-67
2022/03/05 05:19:27;;;;;;;;;80.20;67.40;;;;;;;;5016382;28;8751;-68
2022/03/05 05:21:54;;;;;;;;;76.00;67.80;;;;;;;;5017153;28;8767;-68
2022/03/05 05:24:21;;;;;;;;;83.60;73.80;;;;;;;;5015559;28;9444;-67
2022/03/05 05:26:48;;;;;;;;;84.20;77.20;;;;;;;;5017482;28;8787;-67
2022/03/05 05:29:15;;;;;;;;;80.00;74.80;;;;;;;;5017002;28;8775;-68
2022/03/05 05:31:41;;;;;;;;;80.20;70.00;;;;;;;;5031992;28;8747;-67
2022/03/05 05:34:08;;;;;;;;;77.00;68.40;;;;;;;;5032547;28;8791;-67
2022/03/05 05:36:38;;;;;;;;;79.00;71.60;;;;;;;;5015538;28;8813;-67
2022/03/05 05:39:08;;;;;;;;;75.40;68.20;;;;;;;;5017260;28;8750;-67
2022/03/05 05:41:35;;;;;;;;;76.00;64.00;;;;;;;;5017462;28;8731;-67
2022/03/05 05:44:03;;;;;;;;;71.00;62.60;;;;;;;;5017586;28;8778;-67
2022/03/05 05:46:30;;;;;;;;;77.40;68.80;;;;;;;;5016535;28;8775;-67
2022/03/05 05:48:56;;;;;;;;;77.80;67.80;;;;;;;;5016323;28;9446;-67
2022/03/05 05:51:24;;;;;;;;;79.60;66.80;;;;;;;;5016841;28;8743;-67
2022/03/05 05:53:50;;;;;;;;;79.20;72.60;;;;;;;;5017390;28;8739;-67
2022/03/05 05:56:17;;;;;;;;;71.80;61.00;;;;;;;;5017244;28;8738;-67
2022/03/05 05:58:44;;;;;;;;;72.80;60.20;;;;;;;;5017563;28;8789;-67
2022/03/05 06:01:11;;;;;;;;;74.00;65.20;;;;;;;;5018010;28;8767;-67
2022/03/05 06:03:38;;;;;;;;;71.60;59.00;;;;;;;;5017213;28;8795;-67
2022/03/05 06:06:04;;;;;;;;;74.20;64.80;;;;;;;;5017276;28;8987;-67
2022/03/05 06:08:31;;;;;;;;;68.00;55.60;;;;;;;;5017927;28;8806;-67
2022/03/05 06:10:58;;;;;;;;;69.80;55.60;;;;;;;;5020461;28;8771;-67
2022/03/05 06:13:25;;;;;;;;;71.60;58.80;;;;;;;;5020379;28;8885;-66
2022/03/05 06:15:54;;;;;;;;;73.00;57.60;;;;;;;;5021416;28;8946;-67
2022/03/05 06:18:21;;;;;;;;;71.00;55.80;;;;;;;;5020326;28;8762;-67
2022/03/05 06:20:48;;;;;;;;;70.60;60.40;;;;;;;;5035276;28;8890;-67
2022/03/05 06:23:14;;;;;;;;;74.40;60.00;;;;;;;;5035280;28;8766;-67
2022/03/05 06:25:41;;;;;;;;;69.20;56.20;;;;;;;;5018561;28;8773;-67
2022/03/05 06:28:08;;;;;;;;;69.40;54.20;;;;;;;;5020534;28;8779;-67
2022/03/05 06:30:34;;;;;;;;;70.00;56.00;;;;;;;;5020165;28;8755;-67
2022/03/05 06:33:01;;;;;;;;;67.80;51.60;;;;;;;;5020280;28;8797;-68
2022/03/05 06:35:28;;;;;;;;;67.40;52.00;;;;;;;;5019728;28;8810;-66
2022/03/05 06:37:55;;;;;;;;;62.80;50.20;;;;;;;;5018193;28;8853;-68
2022/03/05 06:40:21;;;;;;;;;65.60;52.60;;;;;;;;5018916;28;8841;-67
2022/03/05 06:42:48;;;;;;;;;67.20;51.80;;;;;;;;5019545;28;8742;-67
2022/03/05 06:45:15;;;;;;;;;66.00;52.00;;;;;;;;5019542;28;8782;-67
2022/03/05 06:47:42;;;;;;;;;68.60;52.20;;;;;;;;5019459;28;8803;-67
2022/03/05 06:50:09;;;;;;;;;68.00;53.60;;;;;;;;5019292;28;8819;-67
2022/03/05 06:52:36;;;;;;;;;64.00;51.60;;;;;;;;5019485;28;8775;-67
2022/03/05 06:55:03;;;;;;;;;63.80;51.00;;;;;;;;5019954;28;8747;-67
2022/03/05 06:57:30;;;;;;;;;65.80;51.80;;;;;;;;5019058;28;8861;-67
2022/03/05 06:59:57;;;;;;;;;62.20;49.20;;;;;;;;5019703;28;8751;-67
2022/03/05 07:02:23;;;;;;;;;64.60;52.00;;;;;;;;5018162;28;9416;-67
2022/03/05 07:04:50;;;;;;;;;64.00;50.40;;;;;;;;5018501;28;8797;-67
2022/03/05 07:07:17;;;;;;;;;60.20;47.20;;;;;;;;5020369;28;8802;-67
2022/03/05 07:09:44;;;;;;;;;62.00;48.20;;;;;;;;5019074;28;8754;-67
2022/03/05 07:12:11;;;;;;;;;65.40;51.20;;;;;;;;5019018;28;8841;-67
2022/03/05 07:14:37;;;;;;;;;65.00;50.80;;;;;;;;5019052;28;8779;-67
2022/03/05 07:17:04;;;;;;;;;66.20;51.60;;;;;;;;5019141;28;8896;-67
2022/03/05 07:19:31;;;;;;;;;63.00;50.20;;;;;;;;5017636;28;8759;-67
2022/03/05 07:21:58;;;;;;;;;59.60;48.00;;;;;;;;5019826;28;8877;-67
2022/03/05 07:24:24;;;;;;;;;55.00;44.50;;;;;;;;5018721;28;8829;-67
2022/03/05 07:26:51;;;;;;;;;53.80;44.40;;;;;;;;5033910;28;8881;-67
2022/03/05 07:29:18;;;;;;;;;62.60;48.80;;;;;;;;5018709;28;8739;-66
2022/03/05 07:31:45;;;;;;;;;57.00;44.80;;;;;;;;5018970;28;8801;-67
2022/03/05 07:34:11;;;;;;;;;58.20;46.20;;;;;;;;5019521;28;8817;-67
2022/03/05 07:36:39;;;;;;;;;60.60;46.40;;;;;;;;5018372;28;8758;-67
2022/03/05 07:39:07;;;;;;;;;54.20;41.20;;;;;;;;5018802;28;8785;-67
2022/03/05 07:41:35;;;;;;;;;55.00;44.80;;;;;;;;5018457;28;8727;-67
2022/03/05 07:44:01;;;;;;;;;56.00;46.20;;;;;;;;5017345;28;8785;-67
2022/03/05 07:46:28;;;;;;;;;53.00;42.75;;;;;;;;5018504;28;8751;-67
2022/03/05 07:48:55;;;;;;;;;53.00;42.20;;;;;;;;5018546;28;8731;-67
2022/03/05 07:51:22;;;;;;;;;56.20;43.40;;;;;;;;5018216;28;8798;-66
2022/03/05 07:53:48;;;;;;;;;47.60;40.40;;;;;;;;5019157;28;8794;-67
2022/03/05 07:56:15;;;;;;;;;60.00;46.40;;;;;;;;5033428;28;8795;-67
2022/03/05 07:58:42;;;;;;;;;54.20;43.40;;;;;;;;5017053;28;8774;-67
2022/03/05 08:01:08;;;;;;;;;49.60;42.00;;;;;;;;5018772;28;8898;-67
2022/03/05 08:03:35;;;;;;;;;58.20;46.20;;;;;;;;5017836;28;8810;-66
2022/03/05 08:06:02;;;;;;;;;52.60;42.80;;;;;;;;5018551;28;8782;-67
2022/03/05 08:08:29;;;;;;;;;50.20;42.00;;;;;;;;5017571;28;8926;-67
2022/03/05 08:10:56;;;;;;;;;55.50;44.75;;;;;;;;5016683;28;8865;-67
2022/03/05 08:13:23;;;;;;;;;52.20;42.40;;;;;;;;5018047;28;8759;-66
2022/03/05 08:15:50;;;;;;;;;51.60;42.40;;;;;;;;5017896;28;8775;-67
2022/03/05 08:18:16;;;;;;;;;48.75;39.75;;;;;;;;5016699;28;8864;-67
2022/03/05 08:20:43;;;;;;;;;49.75;40.75;;;;;;;;5017961;28;9033;-67
2022/03/05 08:23:10;;;;;;;;;51.00;41.25;;;;;;;;5018117;28;8767;-67
2022/03/05 08:25:37;;;;;;;;;52.00;42.00;;;;;;;;5032558;28;8883;-67
2022/03/05 08:28:03;;;;;;;;;49.50;41.00;;;;;;;;5018368;28;8803;-67
2022/03/05 08:30:30;;;;;;;;;53.00;41.00;;;;;;;;5017359;28;8778;-67
2022/03/05 08:32:57;;;;;;;;;50.00;41.00;;;;;;;;5016426;28;8782;-67
2022/03/05 08:35:24;;;;;;;;;49.50;40.25;;;;;;;;5017614;28;8778;-67
2022/03/05 08:37:51;;;;;;;;;52.00;41.60;;;;;;;;5017475;28;8968;-67
2022/03/05 08:40:18;;;;;;;;;51.75;41.50;;;;;;;;5018208;28;8770;-67
2022/03/05 08:42:45;;;;;;;;;55.00;41.75;;;;;;;;5017192;28;8873;-67
2022/03/05 08:45:12;;;;;;;;;54.00;42.60;;;;;;;;5017654;28;8747;-67
2022/03/05 08:47:39;;;;;;;;;52.75;44.00;;;;;;;;5032367;28;8930;-68
2022/03/05 08:50:05;;;;;;;;;50.00;41.50;;;;;;;;5017579;28;8755;-67
2022/03/05 08:52:36;;;;;;;;;52.75;41.00;;;;;;;;5017025;28;8755;-67
2022/03/05 08:55:12;;;;;;;;;52.25;42.00;;;;;;;;5017940;28;8731;-67
2022/03/05 08:57:39;;;;;;;;;53.20;42.00;;;;;;;;5015444;28;8778;-67
2022/03/05 09:00:06;;;;;;;;;47.00;38.75;;;;;;;;5032417;28;8751;-67
2022/03/05 09:02:33;;;;;;;;;53.00;43.25;;;;;;;;5031989;28;8856;-67
2022/03/05 09:05:00;;;;;;;;;52.40;42.00;;;;;;;;5015699;28;8751;-67
2022/03/05 09:07:27;;;;;;;;;44.25;36.50;;;;;;;;5017001;28;8957;-67
2022/03/05 09:09:54;;;;;;;;;51.25;41.75;;;;;;;;5032906;28;8766;-67
2022/03/05 09:12:21;;;;;;;;;46.25;39.50;;;;;;;;5017142;28;8727;-67
2022/03/05 09:14:48;;;;;;;;;48.50;39.50;;;;;;;;5015564;28;8766;-67
2022/03/05 09:17:15;;;;;;;;;48.50;40.50;;;;;;;;5017175;28;8771;-67
2022/03/05 09:19:42;;;;;;;;;44.25;36.50;;;;;;;;5016910;28;8739;-67
2022/03/05 09:22:10;;;;;;;;;50.00;41.00;;;;;;;;5017832;28;8801;-67
2022/03/05 09:24:37;;;;;;;;;48.75;40.50;;;;;;;;5015608;28;8790;-67
2022/03/05 09:27:04;;;;;;;;;51.25;41.50;;;;;;;;5031820;28;8803;-67
2022/03/05 09:29:31;;;;;;;;;53.75;42.00;;;;;;;;5016516;28;9416;-67
2022/03/05 09:31:58;;;;;;;;;52.75;42.00;;;;;;;;5006892;28;8768;-67
2022/03/05 09:34:24;;;;;;;;;48.75;40.25;;;;;;;;5016105;28;9392;-65
2022/03/05 09:36:51;;;;;;;;;50.50;42.00;;;;;;;;5017427;28;8751;-67
2022/03/05 09:39:19;;;;;;;;;47.50;40.25;;;;;;;;5016852;28;8723;-67
2022/03/05 09:41:45;;;;;;;;;47.50;39.75;;;;;;;;5016579;28;8751;-67
2022/03/05 09:44:12;;;;;;;;;52.75;42.25;;;;;;;;5019624;28;8758;-67
2022/03/05 09:46:41;;;;;;;;;52.75;42.50;;;;;;;;5020150;28;8763;-67
2022/03/05 09:49:08;;;;;;;;;49.00;39.00;;;;;;;;5021028;28;8763;-67
2022/03/05 09:51:35;;;;;;;;;46.75;37.75;;;;;;;;5035540;28;8881;-67
2022/03/05 09:54:02;;;;;;;;;46.25;37.00;;;;;;;;5020738;28;8841;-67
2022/03/05 09:56:29;;;;;;;;;53.33;42.67;;;;;;;;5019075;28;8767;-67
2022/03/05 09:58:55;;;;;;;;;51.25;41.00;;;;;;;;5035933;28;8865;-67
2022/03/05 10:01:22;;;;;;;;;45.50;37.75;;;;;;;;5020848;28;8867;-67
2022/03/05 10:03:50;;;;;;;;;50.25;40.25;;;;;;;;5020500;28;8813;-67
2022/03/05 10:06:19;;;;;;;;;41.50;34.25;;;;;;;;5020768;28;8973;-68
2022/03/05 10:08:46;;;;;;;;;48.50;38.50;;;;;;;;5020271;28;9434;-67
2022/03/05 10:11:13;;;;;;;;;51.00;39.25;;;;;;;;5020086;28;8810;-67
2022/03/05 10:13:41;;;;;;;;;49.00;39.50;;;;;;;;5035250;28;8759;-67
2022/03/05 10:16:37;;;;;;;;;45.00;33.50;;;;;;;;5021001;28;8854;-67
2022/03/05 10:19:16;;;;;;;;;44.75;37.75;;;;;;;;5016480;28;8862;-67
2022/03/05 10:21:55;;;;;;;;;48.00;40.00;;;;;;;;5020321;28;8771;-67
2022/03/05 10:24:22;;;;;;;;;45.00;38.25;;;;;;;;5020326;28;8774;-68
2022/03/05 10:26:52;;;;;;;;;47.00;39.00;;;;;;;;5034759;28;8803;-68
2022/03/05 10:29:20;;;;;;;;;45.50;38.50;;;;;;;;5020010;28;8766;-67
2022/03/05 10:32:01;;;;;;;;;48.25;37.25;;;;;;;;5020252;28;8774;-68
2022/03/05 10:34:29;;;;;;;;;45.25;37.25;;;;;;;;5020213;28;8762;-67
2022/03/05 10:36:59;;;;;;;;;48.75;38.25;;;;;;;;5020360;28;8748;-68
2022/03/05 10:39:26;;;;;;;;;50.25;40.50;;;;;;;;5019575;28;8770;-68
2022/03/05 10:41:54;;;;;;;;;49.50;40.25;;;;;;;;5019766;28;8794;-68
2022/03/05 10:44:21;;;;;;;;;47.25;37.00;;;;;;;;5019394;28;8861;-67
2022/03/05 10:46:49;;;;;;;;;43.50;36.25;;;;;;;;5019670;28;8794;-68
2022/03/05 10:49:16;;;;;;;;;50.00;41.00;;;;;;;;5019989;28;8762;-68
2022/03/05 10:51:47;;;;;;;;;47.00;39.25;;;;;;;;5035128;28;8971;-68
2022/03/05 10:54:13;;;;;;;;;48.75;40.25;;;;;;;;5019410;28;8783;-68
2022/03/05 10:56:40;;;;;;;;;54.75;43.25;;;;;;;;5034417;28;8782;-68
2022/03/05 10:59:08;;;;;;;;;51.00;41.00;;;;;;;;5019782;28;8766;-68
2022/03/05 11:01:37;;;;;;;;;53.50;41.50;;;;;;;;5017943;28;8740;-68
2022/03/05 11:04:03;;;;;;;;;55.25;43.00;;;;;;;;5020052;28;8755;-68
2022/03/05 11:06:31;;;;;;;;;56.50;45.25;;;;;;;;5034289;28;8770;-68
2022/03/05 11:08:58;;;;;;;;;53.75;42.25;;;;;;;;5017984;28;8782;-68
2022/03/05 11:11:24;;;;;;;;;52.25;42.25;;;;;;;;5018903;28;8841;-67
2022/03/05 11:13:51;;;;;;;;;53.50;42.50;;;;;;;;5017781;28;8880;-67
2022/03/05 11:16:19;;;;;;;;;53.75;44.25;;;;;;;;5017997;28;8731;-67
2022/03/05 11:18:45;;;;;;;;;51.50;42.75;;;;;;;;5019061;28;8743;-67
2022/03/05 11:21:12;;;;;;;;;53.75;43.25;;;;;;;;5018981;28;8785;-68
2022/03/05 11:23:39;;;;;;;;;51.50;40.75;;;;;;;;5019084;28;8782;-69
2022/03/05 11:26:07;;;;;;;;;50.50;40.75;;;;;;;;5018768;28;8853;-68
2022/03/05 11:28:37;;;;;;;;;57.00;44.75;;;;;;;;5033828;28;8763;-67
2022/03/05 11:31:07;;;;;;;;;56.25;44.00;;;;;;;;5019619;28;8825;-68
2022/03/05 11:33:35;;;;;;;;;52.00;41.75;;;;;;;;5018456;28;8751;-67
2022/03/05 11:36:08;;;;;;;;;56.25;43.50;;;;;;;;5018883;28;8821;-68
2022/03/05 11:38:38;;;;;;;;;57.25;43.75;;;;;;;;5018528;28;8751;-67
2022/03/05 11:41:31;;;;;;;;;51.50;40.00;;;;;;;;5018669;28;8752;-67
2022/03/05 11:44:13;;;;;;;;;50.00;41.00;;;;;;;;5017894;28;8763;-67
2022/03/05 11:46:40;;;;;;;;;52.25;42.25;;;;;;;;5018391;28;8766;-67
2022/03/05 11:49:07;;;;;;;;;56.50;41.75;;;;;;;;5019065;28;8735;-66
2022/03/05 11:51:34;;;;;;;;;54.20;43.80;;;;;;;;5016625;28;8786;-68
2022/03/05 11:54:06;;;;;;;;;53.60;42.40;;;;;;;;5033930;28;8763;-68
2022/03/05 11:56:32;;;;;;;;;51.40;41.20;;;;;;;;5018240;28;8767;-68
2022/03/05 11:59:16;;;;;;;;;56.00;45.20;;;;;;;;5018580;28;8865;-68
2022/03/05 12:01:42;;;;;;;;;57.00;45.60;;;;;;;;5033874;28;8735;-67
2022/03/05 12:04:19;;;;;;;;;57.60;45.00;;;;;;;;5017660;28;8763;-68
2022/03/05 12:06:46;;;;;;;;;55.00;43.75;;;;;;;;5017958;28;8762;-68
2022/03/05 12:09:32;;;;;;;;;58.50;45.25;;;;;;;;5017038;28;8849;-67
2022/03/05 12:12:01;;;;;;;;;55.80;44.00;;;;;;;;5018215;28;8862;-67
2022/03/05 12:14:46;;;;;;;;;55.80;45.80;;;;;;;;5032343;28;8836;-68
2022/03/05 12:17:13;;;;;;;;;52.20;42.00;;;;;;;;5016622;28;9416;-68
2022/03/05 12:19:46;;;;;;;;;55.20;44.40;;;;;;;;5032625;28;8773;-68
2022/03/05 12:22:16;;;;;;;;;53.00;44.25;;;;;;;;5018296;28;8763;-68
2022/03/05 12:24:43;;;;;;;;;58.75;44.50;;;;;;;;5017936;28;8775;-68
2022/03/05 12:27:13;;;;;;;;;61.00;48.80;;;;;;;;5017355;28;8896;-68
2022/03/05 12:29:49;;;;;;;;;56.60;45.80;;;;;;;;5033092;28;8783;-67
2022/03/05 12:32:16;;;;;;;;;61.00;45.80;;;;;;;;5018506;28;8789;-67
2022/03/05 12:34:43;;;;;;;;;62.80;46.80;;;;;;;;5016525;28;8743;-67
2022/03/05 12:37:10;;;;;;;;;64.60;48.40;;;;;;;;5018512;28;9475;-68
2022/03/05 12:39:45;;;;;;;;;62.60;48.20;;;;;;;;5016865;28;8791;-67
2022/03/05 12:42:14;;;;;;;;;61.20;47.00;;;;;;;;5017327;28;8813;-67
2022/03/05 12:44:40;;;;;;;;;63.60;49.20;;;;;;;;5017248;28;8800;-68
2022/03/05 12:47:07;;;;;;;;;64.60;50.00;;;;;;;;5017463;28;8892;-67
2022/03/05 12:49:34;;;;;;;;;57.80;47.60;;;;;;;;5015360;28;8775;-67
2022/03/05 12:52:01;;;;;;;;;69.00;54.60;;;;;;;;5016672;28;8758;-68
2022/03/05 12:54:27;;;;;;;;;60.40;48.60;;;;;;;;5017150;28;8842;-68
2022/03/05 12:56:55;;;;;;;;;64.20;51.20;;;;;;;;5017159;28;8799;-69
2022/03/05 12:59:22;;;;;;;;;69.60;52.80;;;;;;;;5016941;28;8766;-67
2022/03/05 13:01:49;;;;;;;;;66.00;50.00;;;;;;;;5017219;28;8778;-68
2022/03/05 13:04:17;;;;;;;;;64.80;51.00;;;;;;;;5033004;28;8747;-68
2022/03/05 13:06:47;;;;;;;;;66.60;52.20;;;;;;;;5031954;28;8739;-68
2022/03/05 13:09:17;;;;;;;;;67.00;53.00;;;;;;;;5017149;28;9677;-68
2022/03/05 13:11:48;;;;;;;;;65.60;49.60;;;;;;;;5016773;28;8783;-68
2022/03/05 13:14:20;;;;;;;;;62.40;50.20;;;;;;;;5015749;28;8766;-68
2022/03/05 13:16:49;;;;;;;;;57.40;47.80;;;;;;;;5015832;28;8747;-67
2022/03/05 13:19:16;;;;;;;;;66.20;50.60;;;;;;;;5015646;28;8728;-68
2022/03/05 13:21:46;;;;;;;;;70.00;52.80;;;;;;;;5017019;28;8743;-68
2022/03/05 13:24:17;;;;;;;;;68.60;51.40;;;;;;;;5017047;28;8778;-68
2022/03/05 13:26:53;;;;;;;;;63.40;51.20;;;;;;;;5031298;28;8791;-68
2022/03/05 13:29:20;;;;;;;;;70.20;52.80;;;;;;;;5015373;28;8845;-68
2022/03/05 13:31:46;;;;;;;;;65.00;51.00;;;;;;;;5016831;28;8782;-67
2022/03/05 13:34:20;;;;;;;;;63.20;49.60;;;;;;;;5032664;28;8787;-68
2022/03/05 13:36:49;;;;;;;;;63.60;49.60;;;;;;;;5015466;28;8776;-68
2022/03/05 13:39:20;;;;;;;;;60.80;48.00;;;;;;;;5015286;28;9392;-68
2022/03/05 13:41:50;;;;;;;;;63.40;49.40;;;;;;;;5022602;28;8878;-68
2022/03/05 13:44:21;;;;;;;;;63.20;49.20;;;;;;;;4996935;28;8785;-68
2022/03/05 13:46:48;;;;;;;;;63.75;47.25;;;;;;;;4997193;28;8758;-67
2022/03/05 13:49:18;;;;;;;;;62.50;49.25;;;;;;;;4996318;28;8753;-68
2022/03/05 13:51:46;;;;;;;;;57.20;46.80;;;;;;;;4996605;28;8837;-67
2022/03/05 13:54:13;;;;;;;;;58.20;44.00;;;;;;;;4995772;28;9550;-68
2022/03/05 13:56:43;;;;;;;;;55.20;43.20;;;;;;;;5003628;28;8824;-68
2022/03/05 13:59:10;;;;;;;;;55.25;44.00;;;;;;;;5031580;28;8785;-68
2022/03/05 14:01:38;;;;;;;;;59.80;46.60;;;;;;;;5015124;28;8777;-68
2022/03/05 14:04:08;;;;;;;;;59.40;45.80;;;;;;;;5017288;28;8755;-68
2022/03/05 14:06:54;;;;;;;;;55.25;45.50;;;;;;;;5014927;28;8755;-68
2022/03/05 14:09:21;;;;;;;;;57.80;45.60;;;;;;;;5014895;28;8732;-68
2022/03/05 14:11:48;;;;;;;;;55.25;44.50;;;;;;;;5016662;28;8775;-68
2022/03/05 14:14:15;;;;;;;;;51.25;38.75;;;;;;;;5031439;28;8867;-68
2022/03/05 14:16:46;;;;;;;;;52.50;43.00;;;;;;;;5016791;28;8766;-68
2022/03/05 14:19:29;;;;;;;;;63.40;47.20;;;;;;;;5031967;28;8770;-68
2022/03/05 14:22:09;;;;;;;;;57.00;44.20;;;;;;;;5032194;28;8842;-68
2022/03/05 14:24:36;;;;;;;;;58.25;47.50;;;;;;;;5016247;28;8758;-68
2022/03/05 14:27:10;;;;;;;;;56.20;43.00;;;;;;;;5016740;28;8811;-68
2022/03/05 14:29:37;;;;;;;;;55.25;45.75;;;;;;;;5032771;28;8783;-68
2022/03/05 14:32:04;;;;;;;;;54.20;43.40;;;;;;;;5020122;28;9007;-68
2022/03/05 14:34:31;;;;;;;;;59.75;43.75;;;;;;;;5018502;28;9420;-68